sensor_id;sensor_type;location;lat;lon;timestamp;pressure;altitude;pressure_sealevel;temperature;humidity
74268;BME280;62638;51.362;12.472;2023-02-08T00:00:24;102663.75;;;-6.57;100.00
74268;BME280;62638;51.362;12.472;2023-02-08T00:02:50;102660.47;;;-6.44;100.00
74268;BME280;62638;51.362;12.472;2023-02-08T00:05:16;102655.69;;;-6.72;100.00
74268;BME280;62638;51.362;12.472;2023-02-08T00:07:41;102663.59;;;-6.66;100.00
74268;BME280;62638;51.362;12.472;2023-02-08T00:10:07;102644.53;;;-6.65;100.00
74268;BME280;62638;51.362;12.472;2023-02-08T00:12:34;102656.75;;;-6.59;100.00
74268;BME280;62638;51.362;12.472;2023-02-08T00:15:00;102651.25;;;-6.79;100.00
74268;BME280;62638;51.362;12.472;2023-02-08T00:17:25;102665.28;;;-6.69;100.00
74268;BME280;62638;51.362;12.472;2023-02-08T00:19:50;102662.69;;;-6.68;100.00
74268;BME280;62638;51.362;12.472;2023-02-08T00:22:15;102658.16;;;-6.81;100.00
74268;BME280;62638;51.362;12.472;2023-02-08T00:24:41;102665.22;;;-6.74;100.00
74268;BME280;62638;51.362;12.472;2023-02-08T00:27:06;102660.34;;;-6.51;100.00
74268;BME280;62638;51.362;12.472;2023-02-08T00:29:31;102666.34;;;-6.57;100.00
74268;BME280;62638;51.362;12.472;2023-02-08T00:31:56;102663.06;;;-6.44;100.00
74268;BME280;62638;51.362;12.472;2023-02-08T00:34:22;102669.41;;;-6.26;100.00
74268;BME280;62638;51.362;12.472;2023-02-08T00:36:47;102667.66;;;-6.24;100.00
74268;BME280;62638;51.362;12.472;2023-02-08T00:39:13;102674.53;;;-6.31;100.00
74268;BME280;62638;51.362;12.472;2023-02-08T00:41:38;102682.00;;;-6.55;100.00
74268;BME280;62638;51.362;12.472;2023-02-08T00:44:03;102676.53;;;-6.72;100.00
74268;BME280;62638;51.362;12.472;2023-02-08T00:46:29;102672.09;;;-6.79;100.00
74268;BME280;62638;51.362;12.472;2023-02-08T00:48:54;102671.41;;;-6.64;100.00
74268;BME280;62638;51.362;12.472;2023-02-08T00:51:19;102679.06;;;-6.78;100.00
74268;BME280;62638;51.362;12.472;2023-02-08T00:53:45;102669.34;;;-6.88;100.00
74268;BME280;62638;51.362;12.472;2023-02-08T00:56:12;102670.25;;;-6.84;100.00
74268;BME280;62638;51.362;12.472;2023-02-08T00:58:38;102663.94;;;-7.00;100.00
74268;BME280;62638;51.362;12.472;2023-02-08T01:01:04;102671.22;;;-6.79;100.00
74268;BME280;62638;51.362;12.472;2023-02-08T01:03:32;102673.19;;;-6.65;100.00
74268;BME280;62638;51.362;12.472;2023-02-08T01:06:00;102670.63;;;-6.62;100.00
74268;BME280;62638;51.362;12.472;2023-02-08T01:08:25;102666.00;;;-6.79;100.00
74268;BME280;62638;51.362;12.472;2023-02-08T01:10:50;102666.72;;;-6.88;100.00
74268;BME280;62638;51.362;12.472;2023-02-08T01:13:16;102677.16;;;-6.88;100.00
74268;BME280;62638;51.362;12.472;2023-02-08T01:15:41;102678.97;;;-6.82;100.00
74268;BME280;62638;51.362;12.472;2023-02-08T01:18:07;102669.88;;;-7.07;100.00
74268;BME280;62638;51.362;12.472;2023-02-08T01:20:34;102677.25;;;-6.82;100.00
74268;BME280;62638;51.362;12.472;2023-02-08T01:23:00;102669.09;;;-7.02;100.00
74268;BME280;62638;51.362;12.472;2023-02-08T01:25:26;102671.91;;;-6.91;100.00
74268;BME280;62638;51.362;12.472;2023-02-08T01:27:51;102673.44;;;-7.02;100.00
74268;BME280;62638;51.362;12.472;2023-02-08T01:30:16;102666.50;;;-7.03;100.00
74268;BME280;62638;51.362;12.472;2023-02-08T01:32:42;102660.44;;;-7.01;100.00
74268;BME280;62638;51.362;12.472;2023-02-08T01:35:07;102668.44;;;-6.89;100.00
74268;BME280;62638;51.362;12.472;2023-02-08T01:37:32;102665.16;;;-6.77;100.00
74268;BME280;62638;51.362;12.472;2023-02-08T01:39:57;102665.03;;;-6.84;100.00
74268;BME280;62638;51.362;12.472;2023-02-08T01:42:23;102671.09;;;-6.85;100.00
74268;BME280;62638;51.362;12.472;2023-02-08T01:47:47;102652.94;;;-6.81;100.00
74268;BME280;62638;51.362;12.472;2023-02-08T01:50:14;102657.22;;;-6.86;100.00
74268;BME280;62638;51.362;12.472;2023-02-08T01:52:42;102652.13;;;-6.77;100.00
74268;BME280;62638;51.362;12.472;2023-02-08T01:55:23;102648.22;;;-7.05;100.00
74268;BME280;62638;51.362;12.472;2023-02-08T01:57:52;102656.44;;;-6.79;100.00
74268;BME280;62638;51.362;12.472;2023-02-08T02:00:21;102643.34;;;-6.83;100.00
74268;BME280;62638;51.362;12.472;2023-02-08T02:02:49;102659.75;;;-6.89;100.00
74268;BME280;62638;51.362;12.472;2023-02-08T02:05:19;102653.63;;;-6.93;100.00
74268;BME280;62638;51.362;12.472;2023-02-08T02:07:45;102643.97;;;-6.98;100.00
74268;BME280;62638;51.362;12.472;2023-02-08T02:10:19;102642.38;;;-6.90;100.00
74268;BME280;62638;51.362;12.472;2023-02-08T02:12:45;102649.19;;;-7.00;100.00
74268;BME280;62638;51.362;12.472;2023-02-08T02:15:12;102641.41;;;-6.97;100.00
74268;BME280;62638;51.362;12.472;2023-02-08T02:17:38;102643.19;;;-6.94;100.00
74268;BME280;62638;51.362;12.472;2023-02-08T02:34:27;102640.19;;;-7.18;100.00
74268;BME280;62638;51.362;12.472;2023-02-08T02:37:11;102646.31;;;-7.16;100.00
74268;BME280;62638;51.362;12.472;2023-02-08T02:42:22;102649.59;;;-7.26;100.00
74268;BME280;62638;51.362;12.472;2023-02-08T02:45:32;102647.53;;;-7.44;100.00
74268;BME280;62638;51.362;12.472;2023-02-08T02:48:08;102643.25;;;-7.41;100.00
74268;BME280;62638;51.362;12.472;2023-02-08T02:50:41;102639.13;;;-7.29;100.00
74268;BME280;62638;51.362;12.472;2023-02-08T02:53:14;102639.97;;;-7.30;100.00
74268;BME280;62638;51.362;12.472;2023-02-08T02:55:45;102634.53;;;-7.44;100.00
74268;BME280;62638;51.362;12.472;2023-02-08T02:58:13;102639.97;;;-7.29;100.00
74268;BME280;62638;51.362;12.472;2023-02-08T03:00:40;102636.28;;;-7.42;100.00
74268;BME280;62638;51.362;12.472;2023-02-08T03:03:18;102641.44;;;-7.45;100.00
74268;BME280;62638;51.362;12.472;2023-02-08T03:05:45;102638.34;;;-7.72;99.68
74268;BME280;62638;51.362;12.472;2023-02-08T03:11:32;102640.41;;;-7.99;100.00
74268;BME280;62638;51.362;12.472;2023-02-08T03:14:26;102647.78;;;-8.19;100.00
74268;BME280;62638;51.362;12.472;2023-02-08T03:17:17;102651.03;;;-8.31;100.00
74268;BME280;62638;51.362;12.472;2023-02-08T03:19:52;102657.03;;;-8.35;100.00
74268;BME280;62638;51.362;12.472;2023-02-08T03:25:20;102653.06;;;-8.56;100.00
74268;BME280;62638;51.362;12.472;2023-02-08T03:27:55;102658.00;;;-8.67;100.00
74268;BME280;62638;51.362;12.472;2023-02-08T03:30:30;102649.09;;;-8.78;99.58
74268;BME280;62638;51.362;12.472;2023-02-08T03:33:30;102656.19;;;-8.71;99.39
74268;BME280;62638;51.362;12.472;2023-02-08T03:36:01;102666.94;;;-8.93;99.26
74268;BME280;62638;51.362;12.472;2023-02-08T03:38:33;102660.53;;;-9.07;99.46
74268;BME280;62638;51.362;12.472;2023-02-08T03:41:02;102667.53;;;-9.03;99.38
74268;BME280;62638;51.362;12.472;2023-02-08T03:43:35;102670.72;;;-9.13;98.95
74268;BME280;62638;51.362;12.472;2023-02-08T03:46:09;102662.53;;;-8.96;100.00
74268;BME280;62638;51.362;12.472;2023-02-08T03:48:37;102640.81;;;-8.99;99.73
74268;BME280;62638;51.362;12.472;2023-02-08T03:51:05;102659.50;;;-8.78;99.71
74268;BME280;62638;51.362;12.472;2023-02-08T03:53:32;102665.28;;;-8.90;98.29
74268;BME280;62638;51.362;12.472;2023-02-08T03:56:07;102658.94;;;-9.01;98.70
74268;BME280;62638;51.362;12.472;2023-02-08T03:58:40;102662.59;;;-8.93;98.59
74268;BME280;62638;51.362;12.472;2023-02-08T04:01:18;102653.97;;;-8.92;98.84
74268;BME280;62638;51.362;12.472;2023-02-08T04:03:44;102651.50;;;-8.87;99.14
74268;BME280;62638;51.362;12.472;2023-02-08T04:06:12;102644.56;;;-8.87;99.51
74268;BME280;62638;51.362;12.472;2023-02-08T04:08:38;102649.94;;;-8.81;100.00
74268;BME280;62638;51.362;12.472;2023-02-08T04:11:03;102646.47;;;-8.80;100.00
74268;BME280;62638;51.362;12.472;2023-02-08T04:13:28;102628.28;;;-8.80;100.00
74268;BME280;62638;51.362;12.472;2023-02-08T04:15:54;102638.06;;;-8.69;100.00
74268;BME280;62638;51.362;12.472;2023-02-08T04:18:19;102630.66;;;-8.90;99.89
74268;BME280;62638;51.362;12.472;2023-02-08T04:20:44;102637.38;;;-8.98;99.09
74268;BME280;62638;51.362;12.472;2023-02-08T04:23:09;102634.69;;;-9.01;98.86
74268;BME280;62638;51.362;12.472;2023-02-08T04:25:35;102642.34;;;-9.07;98.00
74268;BME280;62638;51.362;12.472;2023-02-08T04:28:00;102640.53;;;-9.11;97.69
74268;BME280;62638;51.362;12.472;2023-02-08T04:30:25;102646.38;;;-9.19;97.17
74268;BME280;62638;51.362;12.472;2023-02-08T04:32:51;102642.31;;;-9.09;98.64
74268;BME280;62638;51.362;12.472;2023-02-08T04:35:17;102637.69;;;-9.21;98.05
74268;BME280;62638;51.362;12.472;2023-02-08T04:37:42;102633.28;;;-9.23;98.68
74268;BME280;62638;51.362;12.472;2023-02-08T04:40:08;102629.03;;;-9.21;98.22
74268;BME280;62638;51.362;12.472;2023-02-08T04:42:33;102623.56;;;-9.32;99.14
74268;BME280;62638;51.362;12.472;2023-02-08T04:44:59;102630.44;;;-9.34;98.92
74268;BME280;62638;51.362;12.472;2023-02-08T04:47:24;102627.81;;;-9.35;98.74
74268;BME280;62638;51.362;12.472;2023-02-08T04:49:50;102639.69;;;-9.45;98.12
74268;BME280;62638;51.362;12.472;2023-02-08T04:52:15;102639.56;;;-9.49;97.57
74268;BME280;62638;51.362;12.472;2023-02-08T04:54:40;102635.22;;;-9.50;97.64
74268;BME280;62638;51.362;12.472;2023-02-08T04:57:05;102642.19;;;-9.48;97.39
74268;BME280;62638;51.362;12.472;2023-02-08T04:59:30;102636.28;;;-9.42;98.25
74268;BME280;62638;51.362;12.472;2023-02-08T05:01:56;102629.03;;;-9.55;97.36
74268;BME280;62638;51.362;12.472;2023-02-08T05:04:21;102644.50;;;-9.58;97.24
74268;BME280;62638;51.362;12.472;2023-02-08T05:06:46;102636.50;;;-9.66;97.95
74268;BME280;62638;51.362;12.472;2023-02-08T05:09:12;102639.09;;;-9.66;98.15
74268;BME280;62638;51.362;12.472;2023-02-08T05:11:37;102638.28;;;-9.65;99.10
74268;BME280;62638;51.362;12.472;2023-02-08T05:14:03;102633.88;;;-9.68;99.04
74268;BME280;62638;51.362;12.472;2023-02-08T05:16:28;102625.28;;;-9.67;99.26
74268;BME280;62638;51.362;12.472;2023-02-08T05:18:55;102624.41;;;-9.67;99.51
74268;BME280;62638;51.362;12.472;2023-02-08T05:21:21;102620.88;;;-9.69;100.00
74268;BME280;62638;51.362;12.472;2023-02-08T05:23:48;102621.56;;;-9.76;99.87
74268;BME280;62638;51.362;12.472;2023-02-08T05:26:14;102617.84;;;-9.86;99.12
74268;BME280;62638;51.362;12.472;2023-02-08T05:28:39;102617.59;;;-9.95;98.71
74268;BME280;62638;51.362;12.472;2023-02-08T05:31:22;102623.25;;;-10.09;98.04
74268;BME280;62638;51.362;12.472;2023-02-08T05:33:48;102627.66;;;-10.05;98.45
74268;BME280;62638;51.362;12.472;2023-02-08T05:36:14;102620.59;;;-10.11;98.79
74268;BME280;62638;51.362;12.472;2023-02-08T05:38:39;102615.63;;;-10.03;99.30
74268;BME280;62638;51.362;12.472;2023-02-08T05:41:05;102622.19;;;-9.85;100.00
74268;BME280;62638;51.362;12.472;2023-02-08T05:43:30;102624.16;;;-9.76;99.90
74268;BME280;62638;51.362;12.472;2023-02-08T05:45:55;102633.31;;;-9.89;98.84
74268;BME280;62638;51.362;12.472;2023-02-08T05:48:21;102628.75;;;-9.97;98.45
74268;BME280;62638;51.362;12.472;2023-02-08T05:50:46;102623.25;;;-10.08;97.97
74268;BME280;62638;51.362;12.472;2023-02-08T05:53:11;102638.38;;;-10.25;97.13
74268;BME280;62638;51.362;12.472;2023-02-08T05:55:36;102644.06;;;-10.36;96.41
74268;BME280;62638;51.362;12.472;2023-02-08T05:58:02;102643.88;;;-10.42;96.42
74268;BME280;62638;51.362;12.472;2023-02-08T06:00:27;102636.53;;;-10.29;96.34
74268;BME280;62638;51.362;12.472;2023-02-08T06:02:52;102641.03;;;-10.22;95.86
74268;BME280;62638;51.362;12.472;2023-02-08T06:05:17;102652.75;;;-10.34;96.16
74268;BME280;62638;51.362;12.472;2023-02-08T06:07:43;102654.09;;;-10.47;96.15
74268;BME280;62638;51.362;12.472;2023-02-08T06:10:08;102641.63;;;-10.60;96.17
74268;BME280;62638;51.362;12.472;2023-02-08T06:12:34;102647.75;;;-10.57;96.38
74268;BME280;62638;51.362;12.472;2023-02-08T06:15:00;102658.53;;;-10.43;97.95
74268;BME280;62638;51.362;12.472;2023-02-08T06:17:25;102652.63;;;-10.39;97.91
74268;BME280;62638;51.362;12.472;2023-02-08T06:19:50;102617.03;;;-10.46;99.13
74268;BME280;62638;51.362;12.472;2023-02-08T06:22:15;102650.44;;;-10.25;99.20
74268;BME280;62638;51.362;12.472;2023-02-08T06:24:41;102643.47;;;-10.28;99.04
74268;BME280;62638;51.362;12.472;2023-02-08T06:27:06;102644.38;;;-10.26;99.08
74268;BME280;62638;51.362;12.472;2023-02-08T06:29:31;102651.31;;;-10.25;99.10
74268;BME280;62638;51.362;12.472;2023-02-08T06:31:57;102643.59;;;-10.23;99.60
74268;BME280;62638;51.362;12.472;2023-02-08T06:34:22;102645.34;;;-10.22;99.38
74268;BME280;62638;51.362;12.472;2023-02-08T06:36:48;102634.47;;;-10.39;98.46
74268;BME280;62638;51.362;12.472;2023-02-08T06:39:13;102634.13;;;-10.51;98.20
74268;BME280;62638;51.362;12.472;2023-02-08T06:41:38;102646.16;;;-10.53;97.64
74268;BME280;62638;51.362;12.472;2023-02-08T06:44:04;102634.81;;;-10.28;98.23
74268;BME280;62638;51.362;12.472;2023-02-08T06:46:29;102646.19;;;-10.23;97.74
74268;BME280;62638;51.362;12.472;2023-02-08T06:48:54;102661.63;;;-10.26;97.37
74268;BME280;62638;51.362;12.472;2023-02-08T06:51:22;102659.56;;;-10.38;96.47
74268;BME280;62638;51.362;12.472;2023-02-08T06:53:47;102659.34;;;-10.44;96.68
74268;BME280;62638;51.362;12.472;2023-02-08T06:56:12;102661.69;;;-10.25;96.10
74268;BME280;62638;51.362;12.472;2023-02-08T06:58:38;102663.66;;;-10.16;96.74
74268;BME280;62638;51.362;12.472;2023-02-08T07:01:03;102667.28;;;-10.09;96.93
74268;BME280;62638;51.362;12.472;2023-02-08T07:03:29;102670.16;;;-9.99;97.20
74268;BME280;62638;51.362;12.472;2023-02-08T07:05:54;102659.59;;;-10.05;97.19
74268;BME280;62638;51.362;12.472;2023-02-08T07:08:19;102670.34;;;-9.93;96.06
74268;BME280;62638;51.362;12.472;2023-02-08T07:10:44;102669.59;;;-9.89;95.20
74268;BME280;62638;51.362;12.472;2023-02-08T07:13:10;102670.72;;;-9.79;95.16
74268;BME280;62638;51.362;12.472;2023-02-08T07:15:35;102654.91;;;-9.57;96.03
74268;BME280;62638;51.362;12.472;2023-02-08T07:18:01;102662.28;;;-9.39;95.86
74268;BME280;62638;51.362;12.472;2023-02-08T07:20:26;102660.94;;;-8.91;96.29
74268;BME280;62638;51.362;12.472;2023-02-08T07:22:51;102659.19;;;-8.54;96.92
74268;BME280;62638;51.362;12.472;2023-02-08T07:25:17;102656.94;;;-8.39;96.19
74268;BME280;62638;51.362;12.472;2023-02-08T07:27:42;102661.06;;;-8.05;96.33
74268;BME280;62638;51.362;12.472;2023-02-08T07:30:07;102661.50;;;-7.86;96.43
74268;BME280;62638;51.362;12.472;2023-02-08T07:32:33;102666.09;;;-7.72;96.09
74268;BME280;62638;51.362;12.472;2023-02-08T07:34:59;102658.91;;;-7.39;96.97
74268;BME280;62638;51.362;12.472;2023-02-08T07:37:25;102660.09;;;-7.22;96.41
74268;BME280;62638;51.362;12.472;2023-02-08T07:39:50;102653.28;;;-7.14;96.21
74268;BME280;62638;51.362;12.472;2023-02-08T07:42:16;102663.00;;;-7.04;95.97
74268;BME280;62638;51.362;12.472;2023-02-08T07:44:41;102660.09;;;-6.68;97.10
74268;BME280;62638;51.362;12.472;2023-02-08T07:47:06;102652.13;;;-6.78;95.56
74268;BME280;62638;51.362;12.472;2023-02-08T07:49:32;102654.84;;;-6.71;96.38
74268;BME280;62638;51.362;12.472;2023-02-08T07:51:58;102651.84;;;-6.38;96.25
74268;BME280;62638;51.362;12.472;2023-02-08T07:54:24;102645.06;;;-6.25;95.22
74268;BME280;62638;51.362;12.472;2023-02-08T07:56:49;102665.34;;;-6.03;94.88
74268;BME280;62638;51.362;12.472;2023-02-08T07:59:14;102663.78;;;-5.89;94.72
74268;BME280;62638;51.362;12.472;2023-02-08T08:01:40;102662.78;;;-6.00;94.80
74268;BME280;62638;51.362;12.472;2023-02-08T08:04:05;102661.97;;;-5.94;94.73
74268;BME280;62638;51.362;12.472;2023-02-08T08:06:30;102657.56;;;-6.00;94.43
74268;BME280;62638;51.362;12.472;2023-02-08T08:08:56;102660.63;;;-5.59;95.13
74268;BME280;62638;51.362;12.472;2023-02-08T08:11:21;102651.94;;;-5.58;94.71
74268;BME280;62638;51.362;12.472;2023-02-08T08:13:47;102652.41;;;-5.95;93.85
74268;BME280;62638;51.362;12.472;2023-02-08T08:16:12;102657.13;;;-5.60;93.83
74268;BME280;62638;51.362;12.472;2023-02-08T08:18:37;102655.53;;;-5.45;94.19
74268;BME280;62638;51.362;12.472;2023-02-08T08:21:03;102651.72;;;-5.76;93.77
74268;BME280;62638;51.362;12.472;2023-02-08T08:23:29;102658.22;;;-5.39;93.99
74268;BME280;62638;51.362;12.472;2023-02-08T08:25:54;102658.56;;;-5.03;93.87
74268;BME280;62638;51.362;12.472;2023-02-08T08:28:20;102656.13;;;-4.82;93.10
74268;BME280;62638;51.362;12.472;2023-02-08T08:30:45;102660.28;;;-5.07;91.93
74268;BME280;62638;51.362;12.472;2023-02-08T08:33:11;102655.63;;;-5.35;94.06
74268;BME280;62638;51.362;12.472;2023-02-08T08:35:38;102661.19;;;-5.01;93.86
74268;BME280;62638;51.362;12.472;2023-02-08T08:38:04;102650.31;;;-4.38;94.46
74268;BME280;62638;51.362;12.472;2023-02-08T08:40:29;102659.25;;;-3.95;93.08
74268;BME280;62638;51.362;12.472;2023-02-08T08:42:55;102661.03;;;-3.84;91.31
74268;BME280;62638;51.362;12.472;2023-02-08T08:45:21;102669.84;;;-3.60;91.14
74268;BME280;62638;51.362;12.472;2023-02-08T08:47:46;102674.75;;;-4.36;90.80
74268;BME280;62638;51.362;12.472;2023-02-08T08:50:11;102669.59;;;-4.18;93.07
74268;BME280;62638;51.362;12.472;2023-02-08T08:52:37;102660.84;;;-4.28;92.00
74268;BME280;62638;51.362;12.472;2023-02-08T08:55:04;102672.97;;;-4.39;90.73
74268;BME280;62638;51.362;12.472;2023-02-08T08:57:30;102674.75;;;-4.30;91.42
74268;BME280;62638;51.362;12.472;2023-02-08T08:59:55;102672.00;;;-4.54;92.80
74268;BME280;62638;51.362;12.472;2023-02-08T09:02:20;102660.16;;;-3.90;92.04
74268;BME280;62638;51.362;12.472;2023-02-08T09:04:46;102680.09;;;-4.09;90.21
74268;BME280;62638;51.362;12.472;2023-02-08T09:07:11;102664.22;;;-4.42;90.79
74268;BME280;62638;51.362;12.472;2023-02-08T09:09:36;102681.00;;;-4.08;91.46
74268;BME280;62638;51.362;12.472;2023-02-08T09:12:02;102676.88;;;-3.50;91.25
74268;BME280;62638;51.362;12.472;2023-02-08T09:14:28;102677.81;;;-3.04;89.97
74268;BME280;62638;51.362;12.472;2023-02-08T09:16:53;102669.97;;;-2.95;90.62
74268;BME280;62638;51.362;12.472;2023-02-08T09:19:19;102676.84;;;-3.56;89.02
74268;BME280;62638;51.362;12.472;2023-02-08T09:21:44;102685.41;;;-3.92;89.79
74268;BME280;62638;51.362;12.472;2023-02-08T09:24:10;102683.69;;;-3.93;91.09
74268;BME280;62638;51.362;12.472;2023-02-08T09:26:35;102678.50;;;-3.78;91.53
74268;BME280;62638;51.362;12.472;2023-02-08T09:29:01;102676.78;;;-3.78;90.11
74268;BME280;62638;51.362;12.472;2023-02-08T09:31:29;102667.28;;;-3.47;90.81
74268;BME280;62638;51.362;12.472;2023-02-08T09:33:57;102671.66;;;-3.32;90.70
74268;BME280;62638;51.362;12.472;2023-02-08T09:36:27;102683.06;;;-3.03;89.73
74268;BME280;62638;51.362;12.472;2023-02-08T09:38:55;102685.63;;;-3.27;89.88
74268;BME280;62638;51.362;12.472;2023-02-08T09:44:09;102681.34;;;-2.86;89.74
74268;BME280;62638;51.362;12.472;2023-02-08T09:46:40;102694.44;;;-2.81;88.33
74268;BME280;62638;51.362;12.472;2023-02-08T09:49:15;102694.41;;;-2.93;87.27
74268;BME280;62638;51.362;12.472;2023-02-08T09:51:48;102695.31;;;-2.59;89.14
74268;BME280;62638;51.362;12.472;2023-02-08T09:54:36;102685.69;;;-2.82;88.69
74268;BME280;62638;51.362;12.472;2023-02-08T09:57:03;102683.03;;;-2.44;88.91
74268;BME280;62638;51.362;12.472;2023-02-08T09:59:32;102681.34;;;-2.72;87.13
74268;BME280;62638;51.362;12.472;2023-02-08T10:02:23;102680.44;;;-2.60;88.58
74268;BME280;62638;51.362;12.472;2023-02-08T10:05:03;102678.69;;;-2.42;87.54
74268;BME280;62638;51.362;12.472;2023-02-08T10:07:30;102691.81;;;-2.55;87.04
74268;BME280;62638;51.362;12.472;2023-02-08T10:10:01;102675.22;;;-2.72;87.81
74268;BME280;62638;51.362;12.472;2023-02-08T10:12:36;102675.97;;;-2.08;88.63
74268;BME280;62638;51.362;12.472;2023-02-08T10:15:12;102679.19;;;-1.43;86.63
74268;BME280;62638;51.362;12.472;2023-02-08T10:18:07;102675.66;;;-1.40;86.61
74268;BME280;62638;51.362;12.472;2023-02-08T10:26:36;102669.78;;;-1.91;85.95
74268;BME280;62638;51.362;12.472;2023-02-08T10:29:19;102666.06;;;-1.44;85.72
74268;BME280;62638;51.362;12.472;2023-02-08T10:32:04;102679.44;;;-1.99;86.89
74268;BME280;62638;51.362;12.472;2023-02-08T10:34:51;102671.41;;;-1.67;86.81
74268;BME280;62638;51.362;12.472;2023-02-08T10:37:30;102667.44;;;-0.95;86.57
74268;BME280;62638;51.362;12.472;2023-02-08T10:42:47;102668.41;;;-1.02;85.58
74268;BME280;62638;51.362;12.472;2023-02-08T10:45:26;102654.75;;;-1.61;84.15
74268;BME280;62638;51.362;12.472;2023-02-08T10:47:56;102661.53;;;-1.24;84.34
74268;BME280;62638;51.362;12.472;2023-02-08T10:50:35;102657.16;;;-1.22;84.71
74268;BME280;62638;51.362;12.472;2023-02-08T10:53:02;102665.75;;;-1.00;85.84
74268;BME280;62638;51.362;12.472;2023-02-08T10:55:29;102662.19;;;-0.95;85.72
74268;BME280;62638;51.362;12.472;2023-02-08T10:57:58;102662.19;;;-0.93;82.59
74268;BME280;62638;51.362;12.472;2023-02-08T11:00:33;102659.72;;;-1.16;82.88
74268;BME280;62638;51.362;12.472;2023-02-08T11:03:12;102654.06;;;-0.69;83.50
74268;BME280;62638;51.362;12.472;2023-02-08T11:05:38;102656.41;;;-0.37;82.52
74268;BME280;62638;51.362;12.472;2023-02-08T11:10:30;102643.78;;;-0.92;83.99
74268;BME280;62638;51.362;12.472;2023-02-08T11:12:58;102635.72;;;0.06;83.03
74268;BME280;62638;51.362;12.472;2023-02-08T11:15:48;102633.09;;;0.06;80.20
74268;BME280;62638;51.362;12.472;2023-02-08T11:18:23;102632.53;;;-0.20;81.83
74268;BME280;62638;51.362;12.472;2023-02-08T11:20:51;102635.50;;;0.23;82.38
74268;BME280;62638;51.362;12.472;2023-02-08T11:23:23;102631.50;;;0.59;80.36
74268;BME280;62638;51.362;12.472;2023-02-08T11:25:50;102625.66;;;0.37;80.83
74268;BME280;62638;51.362;12.472;2023-02-08T11:28:29;102612.03;;;0.05;80.76
74268;BME280;62638;51.362;12.472;2023-02-08T11:31:00;102626.78;;;0.19;80.37
74268;BME280;62638;51.362;12.472;2023-02-08T11:33:29;102625.56;;;0.44;81.34
74268;BME280;62638;51.362;12.472;2023-02-08T11:36:01;102618.88;;;0.21;80.50
74268;BME280;62638;51.362;12.472;2023-02-08T11:38:28;102631.19;;;0.19;80.80
74268;BME280;62638;51.362;12.472;2023-02-08T11:40:57;102626.84;;;0.13;80.80
74268;BME280;62638;51.362;12.472;2023-02-08T11:43:27;102624.16;;;0.79;81.66
74268;BME280;62638;51.362;12.472;2023-02-08T11:45:54;102632.16;;;1.26;75.30
74268;BME280;62638;51.362;12.472;2023-02-08T11:48:38;102631.13;;;1.36;79.12
74268;BME280;62638;51.362;12.472;2023-02-08T11:51:05;102629.03;;;1.55;77.43
74268;BME280;62638;51.362;12.472;2023-02-08T11:53:39;102639.53;;;1.57;75.41
74268;BME280;62638;51.362;12.472;2023-02-08T11:56:06;102632.31;;;1.68;76.81
74268;BME280;62638;51.362;12.472;2023-02-08T11:58:38;102628.25;;;2.36;72.95
74268;BME280;62638;51.362;12.472;2023-02-08T12:01:15;102629.88;;;1.56;72.69
74268;BME280;62638;51.362;12.472;2023-02-08T12:03:41;102634.00;;;1.70;73.23
74268;BME280;62638;51.362;12.472;2023-02-08T12:07:00;102626.94;;;1.23;74.96
74268;BME280;62638;51.362;12.472;2023-02-08T12:12:00;102609.16;;;2.22;68.96
74268;BME280;62638;51.362;12.472;2023-02-08T12:14:51;102610.56;;;2.38;68.57
74268;BME280;62638;51.362;12.472;2023-02-08T12:20:34;102596.75;;;2.64;68.82
74268;BME280;62638;51.362;12.472;2023-02-08T12:26:22;102583.56;;;1.82;69.16
74268;BME280;62638;51.362;12.472;2023-02-08T12:40:51;102570.69;;;2.47;70.76
74268;BME280;62638;51.362;12.472;2023-02-08T12:43:40;102562.69;;;2.12;71.10
74268;BME280;62638;51.362;12.472;2023-02-08T12:46:32;102556.56;;;1.68;72.87
74268;BME280;62638;51.362;12.472;2023-02-08T12:51:50;102560.34;;;1.98;71.12
74268;BME280;62638;51.362;12.472;2023-02-08T12:54:32;102546.00;;;2.48;73.89
74268;BME280;62638;51.362;12.472;2023-02-08T12:57:00;102541.03;;;2.33;70.83
74268;BME280;62638;51.362;12.472;2023-02-08T12:59:32;102539.81;;;2.85;72.23
74268;BME280;62638;51.362;12.472;2023-02-08T13:02:08;102532.13;;;3.08;69.35
74268;BME280;62638;51.362;12.472;2023-02-08T13:04:39;102541.81;;;2.75;68.94
74268;BME280;62638;51.362;12.472;2023-02-08T13:07:37;102532.00;;;2.43;70.09
74268;BME280;62638;51.362;12.472;2023-02-08T13:12:59;102529.28;;;2.82;68.84
74268;BME280;62638;51.362;12.472;2023-02-08T13:15:48;102519.69;;;3.73;66.54
74268;BME280;62638;51.362;12.472;2023-02-08T13:18:39;102515.47;;;2.70;67.67
74268;BME280;62638;51.362;12.472;2023-02-08T13:21:07;102517.69;;;2.87;68.79
74268;BME280;62638;51.362;12.472;2023-02-08T13:23:42;102494.84;;;2.83;68.24
74268;BME280;62638;51.362;12.472;2023-02-08T13:26:14;102505.25;;;2.55;67.46
74268;BME280;62638;51.362;12.472;2023-02-08T13:28:46;102499.72;;;2.64;66.19
74268;BME280;62638;51.362;12.472;2023-02-08T13:31:28;102492.44;;;3.06;67.32
74268;BME280;62638;51.362;12.472;2023-02-08T13:33:55;102488.94;;;2.72;66.57
74268;BME280;62638;51.362;12.472;2023-02-08T13:36:29;102482.41;;;2.53;66.29
74268;BME280;62638;51.362;12.472;2023-02-08T13:38:58;102482.06;;;2.66;66.31
74268;BME280;62638;51.362;12.472;2023-02-08T13:41:25;102478.19;;;2.46;65.96
74268;BME280;62638;51.362;12.472;2023-02-08T13:46:20;102480.78;;;2.81;64.64
74268;BME280;62638;51.362;12.472;2023-02-08T13:48:52;102484.34;;;2.80;65.61
74268;BME280;62638;51.362;12.472;2023-02-08T13:54:13;102468.91;;;2.97;62.63
74268;BME280;62638;51.362;12.472;2023-02-08T13:56:43;102476.22;;;2.88;62.26
74268;BME280;62638;51.362;12.472;2023-02-08T13:59:37;102468.44;;;3.14;62.53